createdAt,value
2018-12-25T00:00:32.456Z,6.60
2018-12-25T00:03:01.386Z,6.60
2018-12-25T00:09:02.509Z,6.50
2018-12-25T00:11:31.331Z,6.50
2018-12-25T00:14:19.477Z,6.50
2018-12-25T00:17:08.237Z,6.60
2018-12-25T00:19:56.436Z,6.60
2018-12-25T00:22:44.547Z,6.60
2018-12-25T00:25:33.121Z,6.60
2018-12-25T00:28:21.460Z,6.60
2018-12-25T00:31:09.693Z,6.60
2018-12-25T00:33:38.502Z,6.50
2018-12-25T00:36:26.823Z,6.50
2018-12-25T00:39:08.265Z,6.50
2018-12-25T00:41:51.564Z,6.50
2018-12-25T00:44:38.680Z,6.40
2018-12-25T00:47:20.984Z,6.40
2018-12-25T00:50:02.449Z,6.30
2018-12-25T00:52:48.365Z,6.30
2018-12-25T00:55:29.881Z,6.30
2018-12-25T00:58:11.513Z,6.30
2018-12-25T01:00:52.296Z,6.30
2018-12-25T01:03:33.681Z,6.20
2018-12-25T01:06:12.810Z,6.20
2018-12-25T01:09:20.944Z,6.20
2018-12-25T01:12:01.906Z,6.20
2018-12-25T01:14:30.925Z,6.20
2018-12-25T01:17:18.944Z,6.10
2018-12-25T01:20:00.385Z,6.10
2018-12-25T01:22:29.303Z,6.10
2018-12-25T01:25:18.203Z,6.20
2018-12-25T01:27:47.236Z,6.20
2018-12-25T01:30:38.791Z,6.20
2018-12-25T01:33:19.608Z,6.20
2018-12-25T01:36:00.424Z,6.10
2018-12-25T01:38:29.314Z,6.10
2018-12-25T01:41:17.882Z,6.20
2018-12-25T01:43:59.601Z,6.20
2018-12-25T01:46:40.938Z,6.30
2018-12-25T01:49:21.957Z,6.40
2018-12-25T01:51:50.980Z,6.50
2018-12-25T01:54:19.821Z,6.50
2018-12-25T02:00:24.109Z,6.40
2018-12-25T02:03:12.881Z,6.40
2018-12-25T02:05:41.813Z,6.50
2018-12-25T02:08:29.857Z,6.50
2018-12-25T02:11:11.220Z,6.50
2018-12-25T02:13:53.096Z,6.50
2018-12-25T02:16:21.981Z,6.50
2018-12-25T02:22:27.271Z,6.50
2018-12-25T02:25:11.566Z,6.60
2018-12-25T02:27:53.094Z,6.60
2018-12-25T02:30:34.173Z,6.60
2018-12-25T02:33:14.610Z,6.60
2018-12-25T02:35:43.442Z,6.60
2018-12-25T02:41:22.885Z,6.60
2018-12-25T02:43:51.691Z,6.50
2018-12-25T02:46:40.329Z,6.50
2018-12-25T02:49:28.395Z,6.60
2018-12-25T02:51:57.351Z,6.60
2018-12-25T02:57:56.324Z,6.60
2018-12-25T03:00:26.641Z,6.60
2018-12-25T03:03:08.691Z,6.60
2018-12-25T03:05:50.912Z,6.50
2018-12-25T03:08:34.341Z,6.50
2018-12-25T03:11:17.565Z,6.50
2018-12-25T03:13:58.493Z,6.50
2018-12-25T03:16:39.672Z,6.40
2018-12-25T03:19:20.735Z,6.40
2018-12-25T03:22:06.634Z,6.40
2018-12-25T03:24:47.320Z,6.30
2018-12-25T03:27:27.985Z,6.30
2018-12-25T03:33:08.608Z,6.30
2018-12-25T03:35:50.158Z,6.30
2018-12-25T03:38:31.482Z,6.20
2018-12-25T03:41:16.109Z,6.20
2018-12-25T03:43:55.345Z,6.20
2018-12-25T03:46:53.614Z,6.20
2018-12-25T03:49:24.269Z,6.20
2018-12-25T03:52:06.543Z,6.20
2018-12-25T03:54:48.087Z,6.20
2018-12-25T03:57:28.626Z,6.20
2018-12-25T04:00:09.298Z,6.20
2018-12-25T04:02:38.221Z,6.20
2018-12-25T04:05:26.461Z,6.30
2018-12-25T04:08:07.177Z,6.20
2018-12-25T04:10:50.864Z,6.20
2018-12-25T04:13:31.778Z,6.30
2018-12-25T04:16:00.765Z,6.30
2018-12-25T04:18:48.824Z,6.30
2018-12-25T04:21:39.727Z,6.30
2018-12-25T04:24:22.097Z,6.30
2018-12-25T04:26:51.225Z,6.30
2018-12-25T04:29:20.336Z,6.20
2018-12-25T04:32:10.790Z,6.30
2018-12-25T04:34:39.597Z,6.20
2018-12-25T04:37:27.758Z,6.30
2018-12-25T04:40:09.002Z,6.30
2018-12-25T04:42:58.277Z,6.40
2018-12-25T04:45:27.332Z,6.40
2018-12-25T04:51:20.370Z,6.40
2018-12-25T04:53:49.260Z,6.40
2018-12-25T04:57:00.104Z,6.40
2018-12-25T04:59:49.809Z,6.40
2018-12-25T05:02:43.885Z,6.50
2018-12-25T05:05:33.500Z,6.50
2018-12-25T05:08:02.572Z,6.50
2018-12-25T05:10:31.629Z,6.50
2018-12-25T05:13:20.077Z,6.40
2018-12-25T05:16:02.702Z,6.40
2018-12-25T05:18:44.652Z,6.40
2018-12-25T05:21:25.393Z,6.30
2018-12-25T05:24:07.247Z,6.30
2018-12-25T05:29:46.951Z,6.20
2018-12-25T05:32:30.452Z,6.20
2018-12-25T05:35:14.130Z,6.30
2018-12-25T05:37:56.902Z,6.30
2018-12-25T05:40:39.666Z,6.20
2018-12-25T05:43:21.540Z,6.20
2018-12-25T05:46:02.664Z,6.20
2018-12-25T05:48:45.697Z,6.20
2018-12-25T05:51:29.964Z,6.20
2018-12-25T05:53:58.766Z,6.20
2018-12-25T05:56:46.992Z,6.10
2018-12-25T05:59:35.757Z,6.10
2018-12-25T06:02:24.852Z,6.10
2018-12-25T06:05:05.845Z,6.00
2018-12-25T06:07:48.206Z,6.00
2018-12-25T06:10:28.876Z,6.00
2018-12-25T06:13:10.345Z,6.10
2018-12-25T06:15:39.161Z,6.00
2018-12-25T06:18:27.492Z,6.00
2018-12-25T06:20:56.397Z,6.10
2018-12-25T06:23:44.937Z,6.00
2018-12-25T06:26:26.425Z,6.00
2018-12-25T06:28:55.442Z,5.90
2018-12-25T06:31:36.029Z,5.90
2018-12-25T06:34:18.205Z,5.90
2018-12-25T06:36:59.418Z,5.90
2018-12-25T06:39:45.384Z,5.90
2018-12-25T06:42:29.219Z,5.90
2018-12-25T06:45:11.554Z,6.00
2018-12-25T06:47:57.548Z,5.90
2018-12-25T06:50:42.261Z,5.90
2018-12-25T06:53:21.356Z,5.90
2018-12-25T06:55:50.320Z,5.90
2018-12-25T06:58:59.230Z,5.90
2018-12-25T07:01:28.116Z,5.90
2018-12-25T07:04:18.713Z,5.90
2018-12-25T07:06:59.214Z,5.90
2018-12-25T07:09:40.637Z,5.90
2018-12-25T07:12:22.916Z,5.90
2018-12-25T07:15:06.017Z,5.90
2018-12-25T07:17:46.744Z,5.90
2018-12-25T07:20:28.892Z,5.90
2018-12-25T07:23:10.369Z,5.90
2018-12-25T07:25:39.186Z,5.80
2018-12-25T07:28:27.380Z,5.90
2018-12-25T07:31:08.389Z,5.80
2018-12-25T07:33:51.802Z,5.80
2018-12-25T07:36:40.037Z,5.80
2018-12-25T07:39:17.921Z,5.80
2018-12-25T07:41:59.413Z,5.80
2018-12-25T07:44:40.784Z,5.80
2018-12-25T07:47:21.181Z,5.80
2018-12-25T07:49:50.241Z,5.80
2018-12-25T07:52:19.265Z,5.80
2018-12-25T07:55:08.002Z,5.80
2018-12-25T07:57:52.919Z,5.80
2018-12-25T08:00:34.284Z,5.80
2018-12-25T08:03:15.358Z,5.80
2018-12-25T08:05:54.690Z,5.80
2018-12-25T08:08:23.645Z,5.70
2018-12-25T08:11:12.749Z,5.80
2018-12-25T08:13:56.844Z,5.80
2018-12-25T08:16:26.272Z,5.80
2018-12-25T08:19:22.331Z,5.70
2018-12-25T08:22:11.372Z,5.70
2018-12-25T08:24:52.496Z,5.80
2018-12-25T08:27:21.850Z,5.70
2018-12-25T08:30:09.874Z,5.80
2018-12-25T08:32:38.912Z,5.80
2018-12-25T08:35:26.938Z,5.90
2018-12-25T08:37:58.282Z,5.80
2018-12-25T08:40:45.956Z,5.80
2018-12-25T08:43:34.117Z,5.80
2018-12-25T08:49:10.177Z,5.80
2018-12-25T08:51:55.099Z,5.80
2018-12-25T08:54:24.085Z,5.80
2018-12-25T08:57:12.176Z,5.90
2018-12-25T08:59:41.327Z,5.90
2018-12-25T09:02:51.437Z,5.90
2018-12-25T09:08:43.240Z,5.90
2018-12-25T09:11:12.211Z,5.90
2018-12-25T09:14:00.816Z,6.00
2018-12-25T09:16:43.144Z,6.00
2018-12-25T09:22:37.298Z,6.00
2018-12-25T09:25:21.708Z,6.00
2018-12-25T09:27:53.889Z,6.10
2018-12-25T09:33:41.770Z,6.00
2018-12-25T09:36:26.793Z,6.00
2018-12-25T09:38:55.871Z,6.00
2018-12-25T09:41:43.911Z,6.00
2018-12-25T09:44:32.174Z,6.00
2018-12-25T09:47:01.036Z,6.00
2018-12-25T09:49:29.896Z,6.10
2018-12-25T09:52:42.222Z,6.10
2018-12-25T09:55:30.538Z,6.20
2018-12-25T09:58:11.910Z,6.30
2018-12-25T10:00:52.962Z,6.30
2018-12-25T10:03:36.785Z,6.30
2018-12-25T10:06:24.602Z,6.30
2018-12-25T10:09:06.780Z,6.40
2018-12-25T10:11:49.781Z,6.40
2018-12-25T10:14:44.586Z,6.50
2018-12-25T10:17:26.678Z,6.50
2018-12-25T10:19:55.646Z,6.60
2018-12-25T10:28:43.902Z,6.70
2018-12-25T10:31:29.206Z,6.80
2018-12-25T10:34:10.609Z,6.80
2018-12-25T10:36:51.593Z,6.80
2018-12-25T10:39:32.798Z,6.90
2018-12-25T10:42:17.026Z,6.90
2018-12-25T10:44:59.895Z,6.90
2018-12-25T10:47:41.353Z,7.00
2018-12-25T10:53:37.105Z,7.00
2018-12-25T10:56:18.984Z,6.90
2018-12-25T11:01:59.044Z,7.10
2018-12-25T11:04:40.150Z,7.20
2018-12-25T11:07:20.946Z,7.20
2018-12-25T11:10:04.071Z,7.20
2018-12-25T11:12:43.934Z,7.10
2018-12-25T11:15:24.908Z,7.20
2018-12-25T11:18:06.628Z,7.10
2018-12-25T11:20:47.404Z,7.10
2018-12-25T11:23:28.569Z,7.10
2018-12-25T11:26:09.764Z,7.10
2018-12-25T11:28:50.617Z,7.30
2018-12-25T11:31:31.978Z,7.30
2018-12-25T11:34:12.478Z,7.30
2018-12-25T11:36:53.225Z,7.40
2018-12-25T11:39:33.825Z,7.40
2018-12-25T11:42:02.863Z,7.50
2018-12-25T11:44:51.200Z,7.50
2018-12-25T11:47:32.608Z,7.50
2018-12-25T11:50:13.845Z,7.50
2018-12-25T11:52:58.906Z,7.60
2018-12-25T11:55:41.577Z,7.60
2018-12-25T11:58:23.500Z,7.60
2018-12-25T12:01:04.522Z,7.50
2018-12-25T12:03:46.292Z,7.50
2018-12-25T12:06:27.864Z,7.50
2018-12-25T12:09:09.811Z,7.50
2018-12-25T12:11:38.783Z,7.60
2018-12-25T12:14:07.750Z,7.60
2018-12-25T12:16:58.880Z,7.60
2018-12-25T12:19:46.910Z,7.60
2018-12-25T12:22:28.076Z,7.70
2018-12-25T12:25:09.896Z,7.70
2018-12-25T12:27:51.137Z,7.70
2018-12-25T12:30:32.270Z,7.70
2018-12-25T12:33:15.517Z,7.70
2018-12-25T12:35:56.637Z,7.70
2018-12-25T12:38:37.504Z,7.70
2018-12-25T12:41:16.962Z,7.70
2018-12-25T12:46:59.736Z,7.70
2018-12-25T12:52:45.684Z,7.70
2018-12-25T12:58:27.187Z,7.70
2018-12-25T13:01:07.945Z,7.70
2018-12-25T13:03:37.412Z,7.80
2018-12-25T13:06:25.417Z,7.70
2018-12-25T13:09:10.105Z,7.70
2018-12-25T13:14:48.327Z,7.80
2018-12-25T13:17:36.146Z,7.80
2018-12-25T13:20:18.870Z,7.70
2018-12-25T13:23:02.553Z,7.70
2018-12-25T13:25:48.749Z,7.80
2018-12-25T13:31:43.100Z,7.70
2018-12-25T13:34:13.547Z,7.70
2018-12-25T13:36:44.257Z,7.70
2018-12-25T13:39:32.377Z,7.70
2018-12-25T13:42:20.709Z,7.70
2018-12-25T13:48:11.234Z,7.70
2018-12-25T13:50:58.059Z,7.70
2018-12-25T13:53:39.857Z,7.70
2018-12-25T13:56:20.856Z,7.70
2018-12-25T13:59:04.329Z,7.80
2018-12-25T14:01:44.888Z,7.90
2018-12-25T14:04:28.236Z,7.90
2018-12-25T14:07:11.820Z,7.80
2018-12-25T14:09:58.525Z,7.60
2018-12-25T14:12:39.485Z,7.60
2018-12-25T14:15:21.574Z,7.50
2018-12-25T14:18:04.722Z,7.50
2018-12-25T14:20:45.607Z,7.50
2018-12-25T14:23:30.416Z,7.30
2018-12-25T14:26:14.636Z,7.30
2018-12-25T14:28:43.449Z,7.20
2018-12-25T14:31:35.710Z,7.20
2018-12-25T14:34:16.798Z,7.10
2018-12-25T14:36:58.994Z,7.10
2018-12-25T14:39:47.432Z,7.00
2018-12-25T14:42:29.394Z,6.90
2018-12-25T14:50:56.981Z,6.90
2018-12-25T14:53:25.791Z,6.80
2018-12-25T14:59:30.749Z,6.70
2018-12-25T15:02:14.516Z,6.60
2018-12-25T15:04:43.475Z,6.60
2018-12-25T15:07:31.669Z,6.60
2018-12-25T15:10:40.976Z,6.60
2018-12-25T15:17:12.189Z,6.40
2018-12-25T15:19:43.496Z,6.30
2018-12-25T15:22:32.366Z,6.20
2018-12-25T15:25:21.875Z,6.10
2018-12-25T15:28:11.796Z,6.10
2018-12-25T15:34:16.202Z,6.10
2018-12-25T15:36:59.463Z,5.90
2018-12-25T15:39:40.924Z,5.80
2018-12-25T15:42:21.868Z,5.80
2018-12-25T15:45:03.074Z,5.70
2018-12-25T15:50:51.160Z,5.70
2018-12-25T15:53:54.945Z,5.70
2018-12-25T15:56:26.749Z,5.60
2018-12-25T16:02:49.612Z,5.50
2018-12-25T16:05:18.546Z,5.40
2018-12-25T16:11:03.509Z,5.40
2018-12-25T16:13:54.316Z,5.40
2018-12-25T16:19:32.283Z,5.30
2018-12-25T16:22:12.777Z,5.20
2018-12-25T16:24:54.494Z,5.10
2018-12-25T16:27:23.329Z,5.10
2018-12-25T16:30:11.680Z,5.10
2018-12-25T16:32:59.728Z,5.00
2018-12-25T16:38:42.305Z,4.90
2018-12-25T16:41:11.344Z,4.90
2018-12-25T16:43:59.500Z,4.90
2018-12-25T16:46:40.644Z,4.90
2018-12-25T16:49:21.304Z,4.80
2018-12-25T16:52:01.648Z,4.80
2018-12-25T16:54:43.356Z,4.80
2018-12-25T16:57:24.453Z,4.80
2018-12-25T17:00:06.205Z,4.80
2018-12-25T17:02:47.752Z,4.70
2018-12-25T17:05:27.331Z,4.70
2018-12-25T17:08:15.746Z,4.70
2018-12-25T17:10:56.401Z,4.70
2018-12-25T17:13:37.172Z,4.70
2018-12-25T17:16:18.065Z,4.70
2018-12-25T17:18:58.665Z,4.70
2018-12-25T17:21:39.303Z,4.70
2018-12-25T17:24:08.200Z,4.60
2018-12-25T17:26:56.421Z,4.70
2018-12-25T17:29:25.365Z,4.60
2018-12-25T17:32:34.126Z,4.60
2018-12-25T17:38:11.957Z,4.50
2018-12-25T17:40:54.164Z,4.50
2018-12-25T17:43:35.072Z,4.50
2018-12-25T17:46:04.246Z,4.40
2018-12-25T17:48:52.404Z,4.30
2018-12-25T17:51:40.433Z,4.30
2018-12-25T17:54:21.834Z,4.30
2018-12-25T17:56:50.696Z,4.30
2018-12-25T17:59:38.844Z,4.20
2018-12-25T18:02:27.072Z,4.20
2018-12-25T18:05:12.028Z,4.20
2018-12-25T18:07:51.063Z,4.10
2018-12-25T18:10:20.206Z,4.20
2018-12-25T18:16:24.486Z,4.10
2018-12-25T18:19:05.945Z,4.10
2018-12-25T18:21:35.095Z,4.10
2018-12-25T18:24:19.505Z,4.20
2018-12-25T18:26:59.062Z,4.20
2018-12-25T18:29:39.974Z,4.20
2018-12-25T18:32:20.613Z,4.10
2018-12-25T18:35:01.918Z,4.20
2018-12-25T18:37:42.875Z,4.20
2018-12-25T18:40:24.044Z,4.10
2018-12-25T18:43:06.139Z,4.10
2018-12-25T18:45:47.449Z,4.00
2018-12-25T18:48:28.952Z,4.00
2018-12-25T18:51:10.690Z,4.00
2018-12-25T18:53:39.682Z,3.90
2018-12-25T18:56:30.016Z,3.90
2018-12-25T18:58:59.061Z,3.90
2018-12-25T19:04:45.462Z,3.90
2018-12-25T19:07:34.192Z,3.90
2018-12-25T19:10:15.000Z,4.00
2018-12-25T19:12:55.739Z,4.00
2018-12-25T19:15:36.226Z,4.00
2018-12-25T19:18:18.025Z,4.00
2018-12-25T19:20:59.690Z,4.10
2018-12-25T19:23:40.389Z,4.20
2018-12-25T19:26:20.958Z,4.20
2018-12-25T19:29:01.694Z,4.20
2018-12-25T19:31:43.546Z,4.30
2018-12-25T19:34:24.753Z,4.30
2018-12-25T19:37:05.748Z,4.30
2018-12-25T19:39:45.587Z,4.30
2018-12-25T19:42:14.665Z,4.30
2018-12-25T19:45:02.697Z,4.20
2018-12-25T19:47:43.265Z,4.20
2018-12-25T19:50:52.872Z,4.20
2018-12-25T19:53:33.942Z,4.20
2018-12-25T19:56:17.565Z,4.10
2018-12-25T19:58:59.372Z,4.10
2018-12-25T20:01:39.764Z,4.00
2018-12-25T20:04:21.926Z,4.00
2018-12-25T20:07:17.332Z,3.90
2018-12-25T20:10:11.284Z,3.90
2018-12-25T20:12:52.743Z,3.90
2018-12-25T20:16:00.427Z,3.90
2018-12-25T20:18:41.002Z,3.80
2018-12-25T20:21:21.982Z,3.80
2018-12-25T20:24:02.733Z,3.80
2018-12-25T20:26:43.684Z,3.70
2018-12-25T20:29:24.816Z,3.70
2018-12-25T20:32:08.597Z,3.70
2018-12-25T20:34:50.864Z,3.70
2018-12-25T20:41:35.322Z,3.70
2018-12-25T20:44:44.620Z,3.60
2018-12-25T20:47:29.470Z,3.60
2018-12-25T20:50:11.717Z,3.60
2018-12-25T20:52:52.564Z,3.60
2018-12-25T20:59:21.354Z,3.60
2018-12-25T21:02:39.306Z,3.50
2018-12-25T21:05:50.573Z,3.50
2018-12-25T21:08:58.096Z,3.40
2018-12-25T21:11:39.486Z,3.40
2018-12-25T21:14:21.725Z,3.40
2018-12-25T21:17:29.229Z,3.30
2018-12-25T21:20:11.923Z,3.30
2018-12-25T21:22:54.537Z,3.30
2018-12-25T21:25:36.056Z,3.30
2018-12-25T21:28:16.929Z,3.20
2018-12-25T21:31:03.846Z,3.30
2018-12-25T21:33:45.093Z,3.20
2018-12-25T21:36:27.127Z,3.20
2018-12-25T21:39:08.317Z,3.20
2018-12-25T21:41:49.189Z,3.10
2018-12-25T21:44:30.021Z,3.10
2018-12-25T21:47:11.922Z,3.10
2018-12-25T21:56:05.253Z,3.20
2018-12-25T21:58:46.080Z,3.10
2018-12-25T22:01:26.708Z,3.10
2018-12-25T22:04:06.733Z,3.00
2018-12-25T22:07:14.100Z,3.00
2018-12-25T22:09:54.765Z,3.00
2018-12-25T22:12:38.104Z,3.20
2018-12-25T22:15:19.697Z,3.20
2018-12-25T22:18:01.415Z,3.20
2018-12-25T22:20:42.702Z,3.20
2018-12-25T22:23:23.518Z,3.30
2018-12-25T22:26:04.869Z,3.30
2018-12-25T22:28:45.566Z,3.20
2018-12-25T22:31:24.638Z,3.20
2018-12-25T22:37:04.399Z,3.30
2018-12-25T22:39:46.109Z,3.30
2018-12-25T22:42:15.134Z,3.30
2018-12-25T22:45:03.538Z,3.40
2018-12-25T22:51:06.312Z,3.40
2018-12-25T22:53:49.409Z,3.40
2018-12-25T22:56:30.605Z,3.40
2018-12-25T22:59:16.686Z,3.40
2018-12-25T23:01:57.762Z,3.40
2018-12-25T23:04:39.213Z,3.40
2018-12-25T23:07:20.110Z,3.40
2018-12-25T23:10:01.258Z,3.40
2018-12-25T23:12:49.696Z,3.40
2018-12-25T23:15:31.733Z,3.40
2018-12-25T23:18:12.992Z,3.40
2018-12-25T23:20:57.128Z,3.30
2018-12-25T23:23:38.170Z,3.40
2018-12-25T23:26:21.500Z,3.40
2018-12-25T23:29:03.489Z,3.30
2018-12-25T23:31:45.354Z,3.30
2018-12-25T23:34:26.728Z,3.30
2018-12-25T23:37:08.587Z,3.30
2018-12-25T23:39:51.718Z,3.30
2018-12-25T23:42:32.988Z,3.20
2018-12-25T23:45:16.990Z,3.30
2018-12-25T23:47:45.928Z,3.30
2018-12-25T23:50:34.038Z,3.20
2018-12-25T23:53:22.367Z,3.20
2018-12-25T23:56:03.941Z,3.20
2018-12-25T23:58:45.252Z,3.20
